createdAt,value
2023-09-08T00:00:45.245Z,58.78
2023-09-08T00:03:11.785Z,58.76
2023-09-08T00:05:38.243Z,58.79
2023-09-08T00:08:04.689Z,58.62
2023-09-08T00:10:31.122Z,58.58
2023-09-08T00:12:57.581Z,59.34
2023-09-08T00:15:24.026Z,59.40
2023-09-08T00:17:50.493Z,59.38
2023-09-08T00:20:17.013Z,58.84
2023-09-08T00:22:43.587Z,59.46
2023-09-08T00:25:10.167Z,59.58
2023-09-08T00:27:36.619Z,59.96
2023-09-08T00:30:03.383Z,59.77
2023-09-08T00:32:29.989Z,59.91
2023-09-08T00:34:56.526Z,60.04
2023-09-08T00:37:23.011Z,60.08
2023-09-08T00:39:49.443Z,60.07
2023-09-08T00:42:15.894Z,60.00
2023-09-08T00:44:42.349Z,60.26
2023-09-08T00:47:08.971Z,60.30
2023-09-08T00:49:35.489Z,60.40
2023-09-08T00:52:02.054Z,60.23
2023-09-08T00:54:28.470Z,60.18
2023-09-08T00:56:54.905Z,60.44
2023-09-08T00:59:21.414Z,60.31
2023-09-08T01:01:47.872Z,60.38
2023-09-08T01:04:14.377Z,59.97
2023-09-08T01:06:40.843Z,60.17
2023-09-08T01:09:07.337Z,60.56
2023-09-08T01:11:33.817Z,60.89
2023-09-08T01:14:00.282Z,60.91
2023-09-08T01:16:26.718Z,61.23
2023-09-08T01:18:53.211Z,61.88
2023-09-08T01:21:19.749Z,61.62
2023-09-08T01:23:46.209Z,61.58
2023-09-08T01:26:12.635Z,61.69
2023-09-08T01:28:39.122Z,62.07
2023-09-08T01:31:05.650Z,61.65
2023-09-08T01:33:32.170Z,62.07
2023-09-08T01:35:58.608Z,62.12
2023-09-08T01:38:25.064Z,62.25
2023-09-08T01:40:51.498Z,62.03
2023-09-08T01:43:17.952Z,62.12
2023-09-08T01:45:44.422Z,62.39
2023-09-08T01:48:10.930Z,61.98
2023-09-08T01:50:37.420Z,62.42
2023-09-08T01:53:03.849Z,62.06
2023-09-08T01:55:30.295Z,62.18
2023-09-08T01:57:56.750Z,61.99
2023-09-08T02:00:23.216Z,62.63
2023-09-08T02:02:49.710Z,62.90
2023-09-08T02:05:16.214Z,63.51
2023-09-08T02:07:42.751Z,63.84
2023-09-08T02:10:09.265Z,64.25
2023-09-08T02:12:35.698Z,64.45
2023-09-08T02:15:02.336Z,64.98
2023-09-08T02:17:28.844Z,65.07
2023-09-08T02:19:55.267Z,65.26
2023-09-08T02:22:21.710Z,65.25
2023-09-08T02:24:48.130Z,65.61
2023-09-08T02:27:14.578Z,65.57
2023-09-08T02:29:41.013Z,65.98
2023-09-08T02:32:07.462Z,66.20
2023-09-08T02:34:33.883Z,66.24
2023-09-08T02:37:00.307Z,66.54
2023-09-08T02:39:26.815Z,66.28
2023-09-08T02:41:53.274Z,66.71
2023-09-08T02:44:19.716Z,66.05
2023-09-08T02:46:46.219Z,65.43
2023-09-08T02:49:12.797Z,65.34
2023-09-08T02:51:40.012Z,65.10
2023-09-08T02:54:06.511Z,64.70
2023-09-08T02:56:33.000Z,64.05
2023-09-08T02:58:59.452Z,63.98
2023-09-08T03:01:25.933Z,63.78
2023-09-08T03:03:52.545Z,63.96
2023-09-08T03:06:19.067Z,64.02
2023-09-08T03:08:45.531Z,63.51
2023-09-08T03:11:11.959Z,63.30
2023-09-08T03:13:38.432Z,63.79
2023-09-08T03:16:04.952Z,63.90
2023-09-08T03:18:31.387Z,64.05
2023-09-08T03:20:57.823Z,64.00
2023-09-08T03:23:24.316Z,63.84
2023-09-08T03:25:50.758Z,64.23
2023-09-08T03:28:17.203Z,63.98
2023-09-08T03:30:43.646Z,64.42
2023-09-08T03:33:10.282Z,64.38
2023-09-08T03:35:36.923Z,64.31
2023-09-08T03:38:03.409Z,64.13
2023-09-08T03:40:29.886Z,64.76
2023-09-08T03:42:56.370Z,65.10
2023-09-08T03:45:22.891Z,65.33
2023-09-08T03:47:49.342Z,65.70
2023-09-08T03:50:15.810Z,65.73
2023-09-08T03:52:42.234Z,65.75
2023-09-08T03:55:08.688Z,65.85
2023-09-08T03:57:35.123Z,65.89
2023-09-08T04:00:01.570Z,65.88
2023-09-08T04:02:28.091Z,66.36
2023-09-08T04:04:54.665Z,66.47
2023-09-08T04:07:21.211Z,66.56
2023-09-08T04:09:47.690Z,66.48
2023-09-08T04:12:14.164Z,66.40
2023-09-08T04:14:40.667Z,65.97
2023-09-08T04:17:07.130Z,66.22
2023-09-08T04:19:34.558Z,66.17
2023-09-08T04:22:01.029Z,66.23
2023-09-08T04:24:27.633Z,66.01
2023-09-08T04:26:54.123Z,65.94
2023-09-08T04:29:20.562Z,66.17
2023-09-08T04:31:47.070Z,66.13
2023-09-08T04:34:13.833Z,66.14
2023-09-08T04:36:40.271Z,66.33
2023-09-08T04:39:06.752Z,66.19
2023-09-08T04:41:33.216Z,66.16
2023-09-08T04:43:59.665Z,65.99
2023-09-08T04:46:26.112Z,65.94
2023-09-08T04:48:52.616Z,66.18
2023-09-08T04:51:19.061Z,66.27
2023-09-08T04:53:45.577Z,66.87
2023-09-08T04:56:12.021Z,67.25
2023-09-08T04:58:38.475Z,67.76
2023-09-08T05:01:04.927Z,68.71
2023-09-08T05:03:31.536Z,68.91
2023-09-08T05:05:58.135Z,69.75
2023-09-08T05:08:24.642Z,69.84
2023-09-08T05:10:51.103Z,70.53
2023-09-08T05:13:30.136Z,70.33
2023-09-08T05:15:57.066Z,71.13
2023-09-08T05:18:23.604Z,71.16
2023-09-08T05:20:50.099Z,70.95
2023-09-08T05:23:16.583Z,70.59
2023-09-08T05:25:43.020Z,70.07
2023-09-08T05:28:09.472Z,70.74
2023-09-08T05:30:35.906Z,70.47
2023-09-08T05:33:02.446Z,70.08
2023-09-08T05:35:29.021Z,70.25
2023-09-08T05:37:55.462Z,70.13
2023-09-08T05:40:21.933Z,71.22
2023-09-08T05:42:48.362Z,70.94
2023-09-08T05:45:14.799Z,70.83
2023-09-08T05:47:41.295Z,69.33
2023-09-08T05:50:07.736Z,69.21
2023-09-08T05:52:34.238Z,68.69
2023-09-08T05:55:03.846Z,68.20
2023-09-08T05:57:30.604Z,68.28
2023-09-08T05:59:57.074Z,68.14
2023-09-08T06:02:23.584Z,68.08
2023-09-08T06:04:50.062Z,68.08
2023-09-08T06:07:16.516Z,68.74
2023-09-08T06:09:43.020Z,69.29
2023-09-08T06:12:09.498Z,69.70
2023-09-08T06:14:36.203Z,70.10
2023-09-08T06:17:02.673Z,70.97
2023-09-08T06:19:29.195Z,71.53
2023-09-08T06:21:55.624Z,71.87
2023-09-08T06:24:22.086Z,71.95
2023-09-08T06:26:48.550Z,71.94
2023-09-08T06:29:15.027Z,71.92
2023-09-08T06:31:41.516Z,71.98
2023-09-08T06:34:08.193Z,71.77
2023-09-08T06:36:34.768Z,72.03
2023-09-08T06:39:01.237Z,71.57
2023-09-08T06:41:27.709Z,70.86
2023-09-08T06:43:54.161Z,71.66
2023-09-08T06:46:20.646Z,71.31
2023-09-08T06:48:47.129Z,71.11
2023-09-08T06:51:13.627Z,71.02
2023-09-08T06:53:40.074Z,70.96
2023-09-08T06:56:06.546Z,70.70
2023-09-08T06:58:33.297Z,70.57
2023-09-08T07:01:00.087Z,70.49
2023-09-08T07:03:26.683Z,70.67
2023-09-08T07:05:53.308Z,70.04
2023-09-08T07:08:19.837Z,69.84
2023-09-08T07:10:46.425Z,69.96
2023-09-08T07:13:13.230Z,69.15
2023-09-08T07:15:40.796Z,69.13
2023-09-08T07:18:08.421Z,68.96
2023-09-08T07:20:34.933Z,69.23
2023-09-08T07:23:01.392Z,68.59
2023-09-08T07:25:27.932Z,68.05
2023-09-08T07:27:54.434Z,68.04
2023-09-08T07:30:20.947Z,68.18
2023-09-08T07:32:47.439Z,67.67
2023-09-08T07:35:13.983Z,67.08
2023-09-08T07:37:40.394Z,66.65
2023-09-08T07:40:06.825Z,66.48
2023-09-08T07:42:33.286Z,66.35
2023-09-08T07:44:59.729Z,66.29
2023-09-08T07:47:26.276Z,66.49
2023-09-08T07:49:52.728Z,66.61
2023-09-08T07:52:19.178Z,65.29
2023-09-08T07:54:45.601Z,65.09
2023-09-08T07:57:12.037Z,64.79
2023-09-08T07:59:38.540Z,64.62
2023-09-08T08:02:05.008Z,64.37
2023-09-08T08:04:31.508Z,65.15
2023-09-08T08:06:58.100Z,63.67
2023-09-08T08:09:24.556Z,64.10
2023-09-08T08:11:51.044Z,62.92
2023-09-08T08:14:17.490Z,63.51
2023-09-08T08:16:43.927Z,63.28
2023-09-08T08:19:10.388Z,62.44
2023-09-08T08:21:36.919Z,62.73
2023-09-08T08:24:03.453Z,62.15
2023-09-08T08:26:29.908Z,62.49
2023-09-08T08:28:56.364Z,61.30
2023-09-08T08:31:22.845Z,61.93
2023-09-08T08:33:49.376Z,61.23
2023-09-08T08:36:15.882Z,61.22
2023-09-08T08:38:42.329Z,60.27
2023-09-08T08:41:08.777Z,60.58
2023-09-08T08:43:35.240Z,61.39
2023-09-08T08:46:01.837Z,60.94
2023-09-08T08:48:28.321Z,61.69
2023-09-08T08:50:54.764Z,61.00
2023-09-08T08:53:21.198Z,61.04
2023-09-08T08:55:47.642Z,60.85
2023-09-08T08:58:14.079Z,62.78
2023-09-08T09:00:40.559Z,61.75
2023-09-08T09:03:14.986Z,61.00
2023-09-08T09:05:45.647Z,62.02
2023-09-08T09:08:14.314Z,61.95
2023-09-08T09:10:40.787Z,61.07
2023-09-08T09:13:07.257Z,61.10
2023-09-08T09:15:33.862Z,60.01
2023-09-08T09:18:00.514Z,60.21
2023-09-08T09:20:26.990Z,58.86
2023-09-08T09:22:53.440Z,60.10
2023-09-08T09:25:20.102Z,58.84
2023-09-08T09:27:46.732Z,59.28
2023-09-08T09:30:13.295Z,58.94
2023-09-08T09:32:39.949Z,58.43
2023-09-08T09:35:06.539Z,58.41
2023-09-08T09:37:33.042Z,57.97
2023-09-08T09:39:59.581Z,57.11
2023-09-08T09:42:26.062Z,57.13
2023-09-08T09:44:52.825Z,57.05
2023-09-08T09:47:19.395Z,56.44
2023-09-08T09:49:45.990Z,56.59
2023-09-08T09:52:13.600Z,56.04
2023-09-08T09:54:40.099Z,57.03
2023-09-08T09:57:06.778Z,56.72
2023-09-08T09:59:34.358Z,56.80
2023-09-08T10:02:00.967Z,56.06
2023-09-08T10:04:27.486Z,55.32
2023-09-08T10:06:54.185Z,55.48
2023-09-08T10:09:20.712Z,55.15
2023-09-08T10:11:47.371Z,56.41
2023-09-08T10:14:13.982Z,55.62
2023-09-08T10:16:41.576Z,55.29
2023-09-08T10:19:08.085Z,54.20
2023-09-08T10:21:34.625Z,54.36
2023-09-08T10:24:01.093Z,54.28
2023-09-08T10:26:30.209Z,54.98
2023-09-08T10:28:57.520Z,55.12
2023-09-08T10:31:25.157Z,54.65
2023-09-08T10:33:51.781Z,54.45
2023-09-08T10:36:18.324Z,55.36
2023-09-08T10:38:45.885Z,54.99
2023-09-08T10:41:12.597Z,54.45
2023-09-08T10:43:39.138Z,54.42
2023-09-08T10:46:05.823Z,54.41
2023-09-08T10:48:33.582Z,54.03
2023-09-08T10:51:00.423Z,53.86
2023-09-08T10:53:26.898Z,53.69
2023-09-08T10:58:25.710Z,53.53
2023-09-08T11:00:54.319Z,52.94
2023-09-08T11:03:20.914Z,53.45
2023-09-08T11:05:48.510Z,54.40
2023-09-08T11:08:15.105Z,53.47
2023-09-08T11:10:42.684Z,54.32
2023-09-08T11:13:09.173Z,53.21
2023-09-08T11:15:35.930Z,53.35
2023-09-08T11:18:02.501Z,52.94
2023-09-08T11:20:30.212Z,50.44
2023-09-08T11:22:57.728Z,50.90
2023-09-08T11:25:24.320Z,49.74
2023-09-08T11:27:50.780Z,48.47
2023-09-08T11:30:17.477Z,47.25
2023-09-08T11:32:44.088Z,46.50
2023-09-08T11:35:10.707Z,48.02
2023-09-08T11:37:37.226Z,47.71
2023-09-08T11:40:05.891Z,48.21
2023-09-08T11:42:32.390Z,47.93
2023-09-08T11:44:58.841Z,49.89
2023-09-08T11:47:25.293Z,46.25
2023-09-08T11:49:51.739Z,47.31
2023-09-08T11:52:18.268Z,46.82
2023-09-08T11:55:00.194Z,46.82
2023-09-08T11:57:31.842Z,45.22
2023-09-08T11:59:58.680Z,45.60
2023-09-08T12:02:25.204Z,45.54
2023-09-08T12:04:51.863Z,46.68
2023-09-08T12:07:18.366Z,46.21
2023-09-08T12:09:44.842Z,46.62
2023-09-08T12:12:11.323Z,46.29
2023-09-08T12:14:37.792Z,43.61
2023-09-08T12:17:04.262Z,44.62
2023-09-08T12:19:31.447Z,43.99
2023-09-08T12:21:58.099Z,43.09
2023-09-08T12:24:25.620Z,43.13
2023-09-08T12:26:52.115Z,43.50
2023-09-08T12:29:18.798Z,42.22
2023-09-08T12:31:45.477Z,42.63
2023-09-08T12:34:13.088Z,41.27
2023-09-08T12:36:40.578Z,41.85
2023-09-08T12:39:07.169Z,41.63
2023-09-08T12:41:33.625Z,41.74
2023-09-08T12:44:01.334Z,43.61
2023-09-08T12:46:27.879Z,42.85
2023-09-08T12:48:55.556Z,42.33
2023-09-08T12:51:23.123Z,41.84
2023-09-08T12:53:49.651Z,42.51
2023-09-08T12:56:17.299Z,42.52
2023-09-08T12:58:43.998Z,42.07
2023-09-08T13:01:10.600Z,42.33
2023-09-08T13:03:38.207Z,42.28
2023-09-08T13:06:04.823Z,42.54
2023-09-08T13:08:31.335Z,43.74
2023-09-08T13:10:58.052Z,41.72
2023-09-08T13:13:25.617Z,42.64
2023-09-08T13:15:53.239Z,42.15
2023-09-08T13:18:19.865Z,41.83
2023-09-08T13:20:47.435Z,42.16
2023-09-08T13:23:15.000Z,42.22
2023-09-08T13:25:41.577Z,41.68
2023-09-08T13:28:08.118Z,41.95
2023-09-08T13:30:35.743Z,42.05
2023-09-08T13:33:02.396Z,41.25
2023-09-08T13:35:29.933Z,41.71
2023-09-08T13:37:56.511Z,41.88
2023-09-08T13:40:23.031Z,42.77
2023-09-08T13:42:49.781Z,41.71
2023-09-08T13:45:17.319Z,42.27
2023-09-08T13:47:44.061Z,41.64
2023-09-08T13:50:11.062Z,42.16
2023-09-08T13:52:38.694Z,41.58
2023-09-08T13:55:30.124Z,42.24
2023-09-08T13:57:55.912Z,42.01
2023-09-08T14:00:25.367Z,42.66
2023-09-08T14:02:57.821Z,41.42
2023-09-08T14:05:28.744Z,43.03
2023-09-08T14:08:06.167Z,43.17
2023-09-08T14:10:40.757Z,42.15
2023-09-08T14:13:09.077Z,42.19
2023-09-08T14:15:36.574Z,42.48
2023-09-08T14:18:03.190Z,43.29
2023-09-08T14:20:30.754Z,43.17
2023-09-08T14:22:57.359Z,43.90
2023-09-08T14:25:24.929Z,43.26
2023-09-08T14:27:51.373Z,42.14
2023-09-08T14:30:18.099Z,43.46
2023-09-08T14:32:44.700Z,42.45
2023-09-08T14:35:13.314Z,41.52
2023-09-08T14:37:39.786Z,41.61
2023-09-08T14:40:07.499Z,42.04
2023-09-08T14:42:33.997Z,42.74
2023-09-08T14:45:00.665Z,43.05
2023-09-08T14:47:27.149Z,43.08
2023-09-08T14:49:54.901Z,42.41
2023-09-08T14:52:21.863Z,43.08
2023-09-08T14:54:49.081Z,42.26
2023-09-08T14:57:15.702Z,41.31
2023-09-08T14:59:43.289Z,41.22
2023-09-08T15:02:09.808Z,42.57
2023-09-08T15:04:36.448Z,43.87
2023-09-08T15:07:02.963Z,42.51
2023-09-08T15:09:29.636Z,41.52
2023-09-08T15:11:56.126Z,42.48
2023-09-08T15:14:22.824Z,42.72
2023-09-08T15:16:49.525Z,42.38
2023-09-08T15:19:17.014Z,42.25
2023-09-08T15:21:43.659Z,42.00
2023-09-08T15:24:11.271Z,42.54
2023-09-08T15:26:37.738Z,43.05
2023-09-08T15:29:05.476Z,42.71
2023-09-08T15:31:31.973Z,42.27
2023-09-08T15:33:58.685Z,42.51
2023-09-08T15:36:25.251Z,43.64
2023-09-08T15:38:52.839Z,42.64
2023-09-08T15:41:19.353Z,41.87
2023-09-08T15:43:47.035Z,42.21
2023-09-08T15:46:14.665Z,41.93
2023-09-08T15:48:42.198Z,42.25
2023-09-08T15:51:08.761Z,41.53
2023-09-08T15:53:35.676Z,41.94
2023-09-08T15:56:02.469Z,41.46
2023-09-08T15:58:28.963Z,42.49
2023-09-08T16:00:55.549Z,42.45
2023-09-08T16:03:22.319Z,43.20
2023-09-08T16:05:48.943Z,43.21
2023-09-08T16:08:15.480Z,43.59
2023-09-08T16:10:42.520Z,43.15
2023-09-08T16:13:09.086Z,43.36
2023-09-08T16:15:36.676Z,41.64
2023-09-08T16:18:03.306Z,41.61
2023-09-08T16:20:30.898Z,42.20
2023-09-08T16:22:57.354Z,42.37
2023-09-08T16:25:24.092Z,43.41
2023-09-08T16:27:50.586Z,43.75
2023-09-08T16:30:17.032Z,43.67
2023-09-08T16:32:43.535Z,45.07
2023-09-08T16:35:10.001Z,46.50
2023-09-08T16:37:36.516Z,46.56
2023-09-08T16:40:03.682Z,44.94
2023-09-08T16:42:30.237Z,46.10
2023-09-08T16:44:56.879Z,46.50
2023-09-08T16:47:23.368Z,46.48
2023-09-08T16:49:50.017Z,47.68
2023-09-08T16:52:16.494Z,49.26
2023-09-08T16:54:43.190Z,49.04
2023-09-08T16:57:09.821Z,48.49
2023-09-08T16:59:37.363Z,48.42
2023-09-08T17:02:03.974Z,48.33
2023-09-08T17:04:30.633Z,47.59
2023-09-08T17:06:57.159Z,47.05
2023-09-08T17:09:24.711Z,47.12
2023-09-08T17:11:51.303Z,47.17
2023-09-08T17:14:17.879Z,47.54
2023-09-08T17:16:44.479Z,47.51
2023-09-08T17:19:11.075Z,46.97
2023-09-08T17:21:37.621Z,46.71
2023-09-08T17:24:04.226Z,46.62
2023-09-08T17:26:30.675Z,46.26
2023-09-08T17:28:57.400Z,46.16
2023-09-08T17:31:23.857Z,46.19
2023-09-08T17:33:50.316Z,46.15
2023-09-08T17:36:16.815Z,45.50
2023-09-08T17:38:43.313Z,45.48
2023-09-08T17:41:09.759Z,45.39
2023-09-08T17:43:37.203Z,45.62
2023-09-08T17:46:05.089Z,45.85
2023-09-08T17:48:31.942Z,46.26
2023-09-08T17:50:58.581Z,46.50
2023-09-08T17:53:25.363Z,46.02
2023-09-08T17:55:51.840Z,45.84
2023-09-08T17:58:19.536Z,45.42
2023-09-08T18:00:46.147Z,45.67
2023-09-08T18:03:15.801Z,46.03
2023-09-08T18:05:43.037Z,46.76
2023-09-08T18:08:09.495Z,47.19
2023-09-08T18:10:36.023Z,46.39
2023-09-08T18:13:03.114Z,46.29
2023-09-08T18:15:29.614Z,46.42
2023-09-08T18:17:56.142Z,46.81
2023-09-08T18:20:22.680Z,46.47
2023-09-08T18:22:49.436Z,46.46
2023-09-08T18:25:15.902Z,46.74
2023-09-08T18:27:42.629Z,46.94
2023-09-08T18:30:09.197Z,46.53
2023-09-08T18:32:35.807Z,47.20
2023-09-08T18:35:02.277Z,46.84
2023-09-08T18:37:28.757Z,47.00
2023-09-08T18:39:55.237Z,47.14
2023-09-08T18:42:21.729Z,46.96
2023-09-08T18:44:48.199Z,47.33
2023-09-08T18:47:14.726Z,47.39
2023-09-08T18:49:41.227Z,47.01
2023-09-08T18:52:07.696Z,47.48
2023-09-08T18:54:34.216Z,47.36
2023-09-08T18:57:00.681Z,47.44
2023-09-08T18:59:27.136Z,47.62
2023-09-08T19:01:53.637Z,47.88
2023-09-08T19:04:20.110Z,47.55
2023-09-08T19:06:46.584Z,47.29
2023-09-08T19:09:13.037Z,46.97
2023-09-08T19:11:39.543Z,46.81
2023-09-08T19:14:06.032Z,47.04
2023-09-08T19:16:32.518Z,47.52
2023-09-08T19:18:59.051Z,46.93
2023-09-08T19:21:25.505Z,47.33
2023-09-08T19:23:51.961Z,47.57
2023-09-08T19:26:18.391Z,47.46
2023-09-08T19:28:44.867Z,47.68
2023-09-08T19:31:11.386Z,47.58
2023-09-08T19:33:38.134Z,47.68
2023-09-08T19:36:04.813Z,47.41
2023-09-08T19:38:32.366Z,47.76
2023-09-08T19:40:58.898Z,48.07
2023-09-08T19:43:25.375Z,47.83
2023-09-08T19:45:51.843Z,48.10
2023-09-08T19:48:18.427Z,48.41
2023-09-08T19:50:44.938Z,48.85
2023-09-08T19:53:11.467Z,48.60
2023-09-08T19:55:37.891Z,49.00
2023-09-08T19:58:04.370Z,48.79
2023-09-08T20:00:30.817Z,49.31
2023-09-08T20:02:57.371Z,49.35
2023-09-08T20:05:23.857Z,49.21
2023-09-08T20:07:50.316Z,49.55
2023-09-08T20:10:16.804Z,49.53
2023-09-08T20:12:43.869Z,49.84
2023-09-08T20:15:11.748Z,49.90
2023-09-08T20:17:38.283Z,49.92
2023-09-08T20:20:04.765Z,50.20
2023-09-08T20:22:31.240Z,49.69
2023-09-08T20:24:57.711Z,49.63
2023-09-08T20:27:24.210Z,49.63
2023-09-08T20:29:50.695Z,49.48
2023-09-08T20:32:17.156Z,49.57
2023-09-08T20:34:43.623Z,49.84
2023-09-08T20:37:10.101Z,49.86
2023-09-08T20:39:36.635Z,50.26
2023-09-08T20:42:03.106Z,50.18
2023-09-08T20:44:29.567Z,49.90
2023-09-08T20:46:56.052Z,50.37
2023-09-08T20:49:23.066Z,49.94
2023-09-08T20:51:49.661Z,49.83
2023-09-08T20:54:16.131Z,49.92
2023-09-08T20:56:42.580Z,50.23
2023-09-08T20:59:09.028Z,50.39
2023-09-08T21:01:36.042Z,50.33
2023-09-08T21:04:03.641Z,50.48
2023-09-08T21:06:31.200Z,50.79
2023-09-08T21:08:57.778Z,50.99
2023-09-08T21:11:24.380Z,50.81
2023-09-08T21:13:51.006Z,50.97
2023-09-08T21:16:18.637Z,51.58
2023-09-08T21:18:45.151Z,51.32
2023-09-08T21:21:11.901Z,51.29
2023-09-08T21:23:39.526Z,51.11
2023-09-08T21:26:07.050Z,50.97
2023-09-08T21:28:34.678Z,50.96
2023-09-08T21:31:02.162Z,50.65
2023-09-08T21:33:28.756Z,51.26
2023-09-08T21:35:56.368Z,51.51
2023-09-08T21:38:23.927Z,51.24
2023-09-08T21:40:50.506Z,50.93
2023-09-08T21:43:17.107Z,50.92
2023-09-08T21:45:43.632Z,50.60
2023-09-08T21:48:10.221Z,51.02
2023-09-08T21:50:36.715Z,50.92
2023-09-08T21:53:04.511Z,51.12
2023-09-08T21:55:32.255Z,51.22
2023-09-08T21:57:59.670Z,51.27
2023-09-08T22:00:28.278Z,51.05
2023-09-08T22:02:56.078Z,50.84
2023-09-08T22:05:24.479Z,51.35
2023-09-08T22:07:52.073Z,51.16
2023-09-08T22:10:18.614Z,51.14
2023-09-08T22:12:45.131Z,51.35
2023-09-08T22:15:11.834Z,51.43
2023-09-08T22:17:38.375Z,51.52
2023-09-08T22:20:06.037Z,51.68
2023-09-08T22:22:32.526Z,51.38
2023-09-08T22:24:59.193Z,52.11
2023-09-08T22:27:26.187Z,52.00
2023-09-08T22:29:52.653Z,51.94
2023-09-08T22:32:19.152Z,51.86
2023-09-08T22:34:45.653Z,52.18
2023-09-08T22:37:12.155Z,52.22
2023-09-08T22:39:38.738Z,52.04
2023-09-08T22:42:06.302Z,51.87
2023-09-08T22:44:32.914Z,52.13
2023-09-08T22:47:00.566Z,52.29
2023-09-08T22:49:28.082Z,52.28
2023-09-08T22:51:55.694Z,52.42
2023-09-08T22:54:22.214Z,52.51
2023-09-08T22:56:48.668Z,52.94
2023-09-08T22:59:15.132Z,52.74
2023-09-08T23:01:42.056Z,52.86
2023-09-08T23:04:08.539Z,53.39
2023-09-08T23:06:35.029Z,53.22
2023-09-08T23:09:01.487Z,53.10
2023-09-08T23:11:28.483Z,53.15
2023-09-08T23:13:55.976Z,53.53
2023-09-08T23:16:23.607Z,53.74
2023-09-08T23:18:50.111Z,53.35
2023-09-08T23:21:16.717Z,53.40
2023-09-08T23:23:43.204Z,53.39
2023-09-08T23:26:09.662Z,54.05
2023-09-08T23:28:36.124Z,54.09
2023-09-08T23:31:02.589Z,54.21
2023-09-08T23:33:29.204Z,54.16
2023-09-08T23:35:57.356Z,54.64
2023-09-08T23:38:23.844Z,54.37
2023-09-08T23:40:50.347Z,54.40
2023-09-08T23:43:16.829Z,54.54
2023-09-08T23:45:43.381Z,54.62
2023-09-08T23:48:09.918Z,54.47
2023-09-08T23:50:36.454Z,54.21
2023-09-08T23:53:02.934Z,54.44
2023-09-08T23:55:29.424Z,54.54
2023-09-08T23:57:55.930Z,54.44
